sensor_id;sensor_type;location;lat;lon;timestamp;P1;durP1;ratioP1;P2;durP2;ratioP2
52015;SDS011;38032;53.326;6.472;2023-06-19T00:01:13;10.60;;;9.45;;
52015;SDS011;38032;53.326;6.472;2023-06-19T00:03:39;11.00;;;9.20;;
52015;SDS011;38032;53.326;6.472;2023-06-19T00:06:05;12.48;;;9.55;;
52015;SDS011;38032;53.326;6.472;2023-06-19T00:08:31;10.40;;;9.30;;
52015;SDS011;38032;53.326;6.472;2023-06-19T00:10:57;11.52;;;9.38;;
52015;SDS011;38032;53.326;6.472;2023-06-19T00:13:23;10.95;;;9.60;;
52015;SDS011;38032;53.326;6.472;2023-06-19T00:15:49;10.23;;;9.20;;
52015;SDS011;38032;53.326;6.472;2023-06-19T00:18:14;10.65;;;9.52;;
52015;SDS011;38032;53.326;6.472;2023-06-19T00:20:42;11.05;;;9.88;;
52015;SDS011;38032;53.326;6.472;2023-06-19T00:23:11;11.02;;;9.73;;
52015;SDS011;38032;53.326;6.472;2023-06-19T00:25:40;11.35;;;10.15;;
52015;SDS011;38032;53.326;6.472;2023-06-19T00:28:06;11.50;;;10.30;;
52015;SDS011;38032;53.326;6.472;2023-06-19T00:30:36;10.38;;;9.23;;
52015;SDS011;38032;53.326;6.472;2023-06-19T00:33:02;10.68;;;9.68;;
52015;SDS011;38032;53.326;6.472;2023-06-19T00:35:30;10.43;;;9.32;;
52015;SDS011;38032;53.326;6.472;2023-06-19T00:37:55;12.13;;;9.63;;
52015;SDS011;38032;53.326;6.472;2023-06-19T00:40:26;11.32;;;10.13;;
52015;SDS011;38032;53.326;6.472;2023-06-19T00:42:54;10.25;;;9.13;;
52015;SDS011;38032;53.326;6.472;2023-06-19T00:45:20;12.20;;;10.13;;
52015;SDS011;38032;53.326;6.472;2023-06-19T00:47:46;11.55;;;9.52;;
52015;SDS011;38032;53.326;6.472;2023-06-19T00:50:12;10.10;;;9.07;;
52015;SDS011;38032;53.326;6.472;2023-06-19T00:52:38;11.40;;;9.50;;
52015;SDS011;38032;53.326;6.472;2023-06-19T00:55:05;9.82;;;8.80;;
52015;SDS011;38032;53.326;6.472;2023-06-19T00:57:32;10.68;;;9.50;;
52015;SDS011;38032;53.326;6.472;2023-06-19T00:59:58;11.10;;;9.60;;
52015;SDS011;38032;53.326;6.472;2023-06-19T01:02:25;10.52;;;9.38;;
52015;SDS011;38032;53.326;6.472;2023-06-19T01:04:52;11.32;;;9.05;;
52015;SDS011;38032;53.326;6.472;2023-06-19T01:07:19;11.88;;;9.05;;
52015;SDS011;38032;53.326;6.472;2023-06-19T01:09:53;10.40;;;9.30;;
52015;SDS011;38032;53.326;6.472;2023-06-19T01:12:33;11.30;;;9.30;;
52015;SDS011;38032;53.326;6.472;2023-06-19T01:15:03;10.82;;;8.95;;
52015;SDS011;38032;53.326;6.472;2023-06-19T01:17:30;10.98;;;9.63;;
52015;SDS011;38032;53.326;6.472;2023-06-19T01:19:57;10.35;;;8.43;;
52015;SDS011;38032;53.326;6.472;2023-06-19T01:22:27;10.25;;;9.25;;
52015;SDS011;38032;53.326;6.472;2023-06-19T01:24:53;11.35;;;9.52;;
52015;SDS011;38032;53.326;6.472;2023-06-19T01:27:20;11.07;;;9.30;;
52015;SDS011;38032;53.326;6.472;2023-06-19T01:29:46;10.13;;;8.95;;
52015;SDS011;38032;53.326;6.472;2023-06-19T01:32:15;9.90;;;8.90;;
52015;SDS011;38032;53.326;6.472;2023-06-19T01:34:46;11.05;;;8.93;;
52015;SDS011;38032;53.326;6.472;2023-06-19T01:37:12;10.52;;;9.30;;
52015;SDS011;38032;53.326;6.472;2023-06-19T01:39:38;11.10;;;9.00;;
52015;SDS011;38032;53.326;6.472;2023-06-19T01:42:05;10.82;;;8.60;;
52015;SDS011;38032;53.326;6.472;2023-06-19T01:44:35;10.90;;;8.45;;
52015;SDS011;38032;53.326;6.472;2023-06-19T01:47:07;10.45;;;8.82;;
52015;SDS011;38032;53.326;6.472;2023-06-19T01:49:36;11.77;;;9.07;;
52015;SDS011;38032;53.326;6.472;2023-06-19T01:52:03;9.80;;;8.80;;
52015;SDS011;38032;53.326;6.472;2023-06-19T01:54:29;10.18;;;8.55;;
52015;SDS011;38032;53.326;6.472;2023-06-19T01:56:56;12.23;;;9.10;;
52015;SDS011;38032;53.326;6.472;2023-06-19T01:59:22;10.90;;;9.23;;
52015;SDS011;38032;53.326;6.472;2023-06-19T02:01:48;10.32;;;9.32;;
52015;SDS011;38032;53.326;6.472;2023-06-19T02:04:14;10.75;;;8.98;;
52015;SDS011;38032;53.326;6.472;2023-06-19T02:06:40;10.52;;;8.82;;
52015;SDS011;38032;53.326;6.472;2023-06-19T02:09:06;10.15;;;9.02;;
52015;SDS011;38032;53.326;6.472;2023-06-19T02:11:33;10.30;;;8.75;;
52015;SDS011;38032;53.326;6.472;2023-06-19T02:13:59;9.80;;;8.68;;
52015;SDS011;38032;53.326;6.472;2023-06-19T02:16:24;10.75;;;8.68;;
52015;SDS011;38032;53.326;6.472;2023-06-19T02:18:50;12.25;;;9.02;;
52015;SDS011;38032;53.326;6.472;2023-06-19T02:21:16;10.15;;;8.43;;
52015;SDS011;38032;53.326;6.472;2023-06-19T02:23:42;11.70;;;9.18;;
52015;SDS011;38032;53.326;6.472;2023-06-19T02:26:07;12.73;;;8.70;;
52015;SDS011;38032;53.326;6.472;2023-06-19T02:28:33;9.75;;;8.75;;
52015;SDS011;38032;53.326;6.472;2023-06-19T02:30:59;10.77;;;8.75;;
52015;SDS011;38032;53.326;6.472;2023-06-19T02:33:25;10.27;;;8.70;;
52015;SDS011;38032;53.326;6.472;2023-06-19T02:35:51;10.85;;;9.02;;
52015;SDS011;38032;53.326;6.472;2023-06-19T02:38:17;12.02;;;9.23;;
52015;SDS011;38032;53.326;6.472;2023-06-19T02:40:46;12.32;;;8.82;;
52015;SDS011;38032;53.326;6.472;2023-06-19T02:43:12;10.02;;;8.80;;
52015;SDS011;38032;53.326;6.472;2023-06-19T02:45:38;12.52;;;9.15;;
52015;SDS011;38032;53.326;6.472;2023-06-19T02:48:04;11.07;;;8.98;;
52015;SDS011;38032;53.326;6.472;2023-06-19T02:50:30;10.70;;;8.77;;
52015;SDS011;38032;53.326;6.472;2023-06-19T02:52:56;11.25;;;8.40;;
52015;SDS011;38032;53.326;6.472;2023-06-19T02:55:21;10.30;;;8.55;;
52015;SDS011;38032;53.326;6.472;2023-06-19T02:57:47;10.93;;;8.68;;
52015;SDS011;38032;53.326;6.472;2023-06-19T03:00:13;10.05;;;8.10;;
52015;SDS011;38032;53.326;6.472;2023-06-19T03:02:39;9.50;;;8.20;;
52015;SDS011;38032;53.326;6.472;2023-06-19T03:05:08;9.35;;;8.35;;
52015;SDS011;38032;53.326;6.472;2023-06-19T03:07:35;10.60;;;8.10;;
52015;SDS011;38032;53.326;6.472;2023-06-19T03:10:01;9.02;;;8.13;;
52015;SDS011;38032;53.326;6.472;2023-06-19T03:12:27;9.57;;;8.50;;
52015;SDS011;38032;53.326;6.472;2023-06-19T03:14:53;10.23;;;8.80;;
52015;SDS011;38032;53.326;6.472;2023-06-19T03:17:19;11.85;;;8.85;;
52015;SDS011;38032;53.326;6.472;2023-06-19T03:19:45;11.57;;;8.82;;
52015;SDS011;38032;53.326;6.472;2023-06-19T03:22:10;12.73;;;8.63;;
52015;SDS011;38032;53.326;6.472;2023-06-19T03:24:36;9.88;;;8.65;;
52015;SDS011;38032;53.326;6.472;2023-06-19T03:27:02;9.80;;;8.52;;
52015;SDS011;38032;53.326;6.472;2023-06-19T03:29:28;10.05;;;8.30;;
52015;SDS011;38032;53.326;6.472;2023-06-19T03:31:54;10.93;;;8.32;;
52015;SDS011;38032;53.326;6.472;2023-06-19T03:34:19;13.10;;;8.65;;
52015;SDS011;38032;53.326;6.472;2023-06-19T03:36:45;8.65;;;7.75;;
52015;SDS011;38032;53.326;6.472;2023-06-19T03:39:11;11.20;;;8.40;;
52015;SDS011;38032;53.326;6.472;2023-06-19T03:41:37;10.85;;;8.02;;
52015;SDS011;38032;53.326;6.472;2023-06-19T03:44:03;11.10;;;8.45;;
52015;SDS011;38032;53.326;6.472;2023-06-19T03:46:29;10.20;;;7.82;;
52015;SDS011;38032;53.326;6.472;2023-06-19T03:48:54;8.73;;;7.68;;
52015;SDS011;38032;53.326;6.472;2023-06-19T03:51:20;9.38;;;8.00;;
52015;SDS011;38032;53.326;6.472;2023-06-19T03:53:46;11.13;;;8.25;;
52015;SDS011;38032;53.326;6.472;2023-06-19T03:56:12;11.02;;;7.97;;
52015;SDS011;38032;53.326;6.472;2023-06-19T03:58:38;12.98;;;8.25;;
52015;SDS011;38032;53.326;6.472;2023-06-19T04:01:03;10.23;;;8.10;;
52015;SDS011;38032;53.326;6.472;2023-06-19T04:03:30;10.35;;;8.10;;
52015;SDS011;38032;53.326;6.472;2023-06-19T04:05:56;9.07;;;8.10;;
52015;SDS011;38032;53.326;6.472;2023-06-19T04:08:22;12.13;;;8.45;;
52015;SDS011;38032;53.326;6.472;2023-06-19T04:10:48;9.98;;;8.77;;
52015;SDS011;38032;53.326;6.472;2023-06-19T04:13:14;12.82;;;8.70;;
52015;SDS011;38032;53.326;6.472;2023-06-19T04:15:41;9.77;;;7.88;;
52015;SDS011;38032;53.326;6.472;2023-06-19T04:18:09;8.40;;;7.50;;
52015;SDS011;38032;53.326;6.472;2023-06-19T04:20:35;10.73;;;8.25;;
52015;SDS011;38032;53.326;6.472;2023-06-19T04:23:01;10.75;;;8.48;;
52015;SDS011;38032;53.326;6.472;2023-06-19T04:25:27;10.55;;;8.18;;
52015;SDS011;38032;53.326;6.472;2023-06-19T04:27:53;10.85;;;8.05;;
52015;SDS011;38032;53.326;6.472;2023-06-19T04:30:18;9.43;;;8.45;;
52015;SDS011;38032;53.326;6.472;2023-06-19T04:32:46;11.18;;;8.77;;
52015;SDS011;38032;53.326;6.472;2023-06-19T04:35:12;10.52;;;8.98;;
52015;SDS011;38032;53.326;6.472;2023-06-19T04:37:38;10.63;;;8.77;;
52015;SDS011;38032;53.326;6.472;2023-06-19T04:40:04;11.27;;;9.38;;
52015;SDS011;38032;53.326;6.472;2023-06-19T04:42:32;12.98;;;8.43;;
52015;SDS011;38032;53.326;6.472;2023-06-19T04:44:58;8.85;;;7.72;;
52015;SDS011;38032;53.326;6.472;2023-06-19T04:47:24;10.75;;;8.23;;
52015;SDS011;38032;53.326;6.472;2023-06-19T04:49:50;8.75;;;7.57;;
52015;SDS011;38032;53.326;6.472;2023-06-19T04:52:16;8.55;;;7.65;;
52015;SDS011;38032;53.326;6.472;2023-06-19T04:54:43;9.30;;;8.00;;
52015;SDS011;38032;53.326;6.472;2023-06-19T04:57:09;9.13;;;6.53;;
52015;SDS011;38032;53.326;6.472;2023-06-19T04:59:35;8.57;;;6.28;;
52015;SDS011;38032;53.326;6.472;2023-06-19T05:02:01;6.82;;;6.13;;
52015;SDS011;38032;53.326;6.472;2023-06-19T05:04:27;8.25;;;6.15;;
52015;SDS011;38032;53.326;6.472;2023-06-19T05:06:57;8.48;;;5.93;;
52015;SDS011;38032;53.326;6.472;2023-06-19T05:09:24;7.80;;;6.38;;
52015;SDS011;38032;53.326;6.472;2023-06-19T05:11:50;9.48;;;6.90;;
52015;SDS011;38032;53.326;6.472;2023-06-19T05:14:15;8.75;;;7.80;;
52015;SDS011;38032;53.326;6.472;2023-06-19T05:16:41;8.80;;;7.22;;
52015;SDS011;38032;53.326;6.472;2023-06-19T05:19:07;11.45;;;6.03;;
52015;SDS011;38032;53.326;6.472;2023-06-19T05:21:33;9.10;;;6.35;;
52015;SDS011;38032;53.326;6.472;2023-06-19T05:23:58;11.70;;;6.10;;
52015;SDS011;38032;53.326;6.472;2023-06-19T05:26:24;9.38;;;5.30;;
52015;SDS011;38032;53.326;6.472;2023-06-19T05:28:51;6.05;;;5.07;;
52015;SDS011;38032;53.326;6.472;2023-06-19T05:31:17;7.38;;;5.00;;
52015;SDS011;38032;53.326;6.472;2023-06-19T05:33:43;7.55;;;5.30;;
52015;SDS011;38032;53.326;6.472;2023-06-19T05:36:09;8.00;;;5.50;;
52015;SDS011;38032;53.326;6.472;2023-06-19T05:38:35;6.50;;;5.45;;
52015;SDS011;38032;53.326;6.472;2023-06-19T05:41:02;7.10;;;5.30;;
52015;SDS011;38032;53.326;6.472;2023-06-19T05:43:28;6.15;;;4.97;;
52015;SDS011;38032;53.326;6.472;2023-06-19T05:45:54;6.70;;;5.90;;
52015;SDS011;38032;53.326;6.472;2023-06-19T05:48:21;6.60;;;5.45;;
52015;SDS011;38032;53.326;6.472;2023-06-19T05:50:47;8.27;;;5.10;;
52015;SDS011;38032;53.326;6.472;2023-06-19T05:53:13;7.43;;;5.35;;
52015;SDS011;38032;53.326;6.472;2023-06-19T05:55:38;6.60;;;5.80;;
52015;SDS011;38032;53.326;6.472;2023-06-19T05:58:04;7.88;;;4.95;;
52015;SDS011;38032;53.326;6.472;2023-06-19T06:00:30;8.60;;;5.45;;
52015;SDS011;38032;53.326;6.472;2023-06-19T06:02:57;7.65;;;5.95;;
52015;SDS011;38032;53.326;6.472;2023-06-19T06:05:25;7.13;;;5.85;;
52015;SDS011;38032;53.326;6.472;2023-06-19T06:07:52;8.60;;;6.07;;
52015;SDS011;38032;53.326;6.472;2023-06-19T06:10:20;9.68;;;6.50;;
52015;SDS011;38032;53.326;6.472;2023-06-19T06:12:47;10.60;;;6.82;;
52015;SDS011;38032;53.326;6.472;2023-06-19T06:15:13;11.38;;;6.35;;
52015;SDS011;38032;53.326;6.472;2023-06-19T06:17:39;10.35;;;6.93;;
52015;SDS011;38032;53.326;6.472;2023-06-19T06:20:05;8.85;;;7.40;;
52015;SDS011;38032;53.326;6.472;2023-06-19T06:22:38;8.98;;;7.10;;
52015;SDS011;38032;53.326;6.472;2023-06-19T06:25:05;11.02;;;9.18;;
52015;SDS011;38032;53.326;6.472;2023-06-19T06:27:31;10.85;;;8.23;;
52015;SDS011;38032;53.326;6.472;2023-06-19T06:29:57;10.80;;;9.48;;
52015;SDS011;38032;53.326;6.472;2023-06-19T06:32:23;13.48;;;9.20;;
52015;SDS011;38032;53.326;6.472;2023-06-19T06:34:48;13.40;;;10.52;;
52015;SDS011;38032;53.326;6.472;2023-06-19T06:37:14;14.25;;;10.50;;
52015;SDS011;38032;53.326;6.472;2023-06-19T06:39:42;14.73;;;11.48;;
52015;SDS011;38032;53.326;6.472;2023-06-19T06:42:08;15.18;;;10.85;;
52015;SDS011;38032;53.326;6.472;2023-06-19T06:44:34;13.35;;;11.57;;
52015;SDS011;38032;53.326;6.472;2023-06-19T06:47:00;13.68;;;10.40;;
52015;SDS011;38032;53.326;6.472;2023-06-19T06:49:26;14.57;;;11.35;;
52015;SDS011;38032;53.326;6.472;2023-06-19T06:51:52;15.10;;;12.30;;
52015;SDS011;38032;53.326;6.472;2023-06-19T06:54:18;15.07;;;12.65;;
52015;SDS011;38032;53.326;6.472;2023-06-19T06:56:43;14.65;;;11.55;;
52015;SDS011;38032;53.326;6.472;2023-06-19T06:59:13;14.63;;;11.85;;
52015;SDS011;38032;53.326;6.472;2023-06-19T07:01:41;15.73;;;12.10;;
52015;SDS011;38032;53.326;6.472;2023-06-19T07:04:07;14.65;;;11.65;;
52015;SDS011;38032;53.326;6.472;2023-06-19T07:06:33;15.73;;;13.25;;
52015;SDS011;38032;53.326;6.472;2023-06-19T07:08:58;15.38;;;12.15;;
52015;SDS011;38032;53.326;6.472;2023-06-19T07:11:24;14.93;;;12.63;;
52015;SDS011;38032;53.326;6.472;2023-06-19T07:13:50;15.80;;;13.77;;
52015;SDS011;38032;53.326;6.472;2023-06-19T07:16:16;16.90;;;13.70;;
52015;SDS011;38032;53.326;6.472;2023-06-19T07:18:42;16.40;;;13.60;;
52015;SDS011;38032;53.326;6.472;2023-06-19T07:21:10;19.42;;;14.77;;
52015;SDS011;38032;53.326;6.472;2023-06-19T07:23:39;22.42;;;15.95;;
52015;SDS011;38032;53.326;6.472;2023-06-19T07:26:06;24.52;;;17.08;;
52015;SDS011;38032;53.326;6.472;2023-06-19T07:28:32;22.60;;;17.15;;
52015;SDS011;38032;53.326;6.472;2023-06-19T07:30:57;24.23;;;17.27;;
52015;SDS011;38032;53.326;6.472;2023-06-19T07:33:23;26.35;;;18.15;;
52015;SDS011;38032;53.326;6.472;2023-06-19T07:35:49;24.48;;;18.83;;
52015;SDS011;38032;53.326;6.472;2023-06-19T07:38:15;25.90;;;18.73;;
52015;SDS011;38032;53.326;6.472;2023-06-19T07:40:41;29.60;;;20.15;;
52015;SDS011;38032;53.326;6.472;2023-06-19T07:43:07;27.38;;;19.95;;
52015;SDS011;38032;53.326;6.472;2023-06-19T07:45:33;28.05;;;19.90;;
52015;SDS011;38032;53.326;6.472;2023-06-19T07:47:58;31.08;;;21.17;;
52015;SDS011;38032;53.326;6.472;2023-06-19T07:50:24;27.67;;;19.73;;
52015;SDS011;38032;53.326;6.472;2023-06-19T07:52:50;30.00;;;20.70;;
52015;SDS011;38032;53.326;6.472;2023-06-19T07:55:16;27.55;;;19.65;;
52015;SDS011;38032;53.326;6.472;2023-06-19T07:57:42;30.05;;;19.92;;
52015;SDS011;38032;53.326;6.472;2023-06-19T08:00:08;28.33;;;19.05;;
52015;SDS011;38032;53.326;6.472;2023-06-19T08:02:38;29.08;;;19.88;;
52015;SDS011;38032;53.326;6.472;2023-06-19T08:05:04;30.38;;;21.13;;
52015;SDS011;38032;53.326;6.472;2023-06-19T08:07:32;28.30;;;19.50;;
52015;SDS011;38032;53.326;6.472;2023-06-19T08:09:57;27.83;;;19.20;;
52015;SDS011;38032;53.326;6.472;2023-06-19T08:12:23;27.05;;;18.40;;
52015;SDS011;38032;53.326;6.472;2023-06-19T08:14:50;27.00;;;19.05;;
52015;SDS011;38032;53.326;6.472;2023-06-19T08:17:16;26.05;;;18.63;;
52015;SDS011;38032;53.326;6.472;2023-06-19T08:19:42;25.83;;;18.50;;
52015;SDS011;38032;53.326;6.472;2023-06-19T08:22:08;24.35;;;18.23;;
52015;SDS011;38032;53.326;6.472;2023-06-19T08:24:34;25.13;;;16.83;;
52015;SDS011;38032;53.326;6.472;2023-06-19T08:27:04;22.20;;;16.05;;
52015;SDS011;38032;53.326;6.472;2023-06-19T08:29:30;24.17;;;15.18;;
52015;SDS011;38032;53.326;6.472;2023-06-19T08:31:56;22.10;;;15.70;;
52015;SDS011;38032;53.326;6.472;2023-06-19T08:34:22;19.80;;;15.07;;
52015;SDS011;38032;53.326;6.472;2023-06-19T08:36:48;18.83;;;14.35;;
52015;SDS011;38032;53.326;6.472;2023-06-19T08:39:13;18.40;;;13.15;;
52015;SDS011;38032;53.326;6.472;2023-06-19T08:41:39;16.58;;;13.07;;
52015;SDS011;38032;53.326;6.472;2023-06-19T08:44:06;17.15;;;12.13;;
52015;SDS011;38032;53.326;6.472;2023-06-19T08:46:33;16.42;;;12.00;;
52015;SDS011;38032;53.326;6.472;2023-06-19T08:48:59;15.18;;;11.05;;
52015;SDS011;38032;53.326;6.472;2023-06-19T08:51:26;13.18;;;10.85;;
52015;SDS011;38032;53.326;6.472;2023-06-19T08:53:55;14.70;;;9.18;;
52015;SDS011;38032;53.326;6.472;2023-06-19T08:56:22;11.68;;;9.23;;
52015;SDS011;38032;53.326;6.472;2023-06-19T08:58:48;11.18;;;9.10;;
52015;SDS011;38032;53.326;6.472;2023-06-19T09:01:16;11.32;;;8.77;;
52015;SDS011;38032;53.326;6.472;2023-06-19T09:03:43;10.32;;;8.20;;
52015;SDS011;38032;53.326;6.472;2023-06-19T09:06:14;13.02;;;8.80;;
52015;SDS011;38032;53.326;6.472;2023-06-19T09:08:41;9.63;;;8.40;;
52015;SDS011;38032;53.326;6.472;2023-06-19T09:11:07;10.52;;;8.48;;
52015;SDS011;38032;53.326;6.472;2023-06-19T09:13:33;10.90;;;8.82;;
52015;SDS011;38032;53.326;6.472;2023-06-19T09:16:00;11.15;;;8.70;;
52015;SDS011;38032;53.326;6.472;2023-06-19T09:18:29;11.82;;;8.98;;
52015;SDS011;38032;53.326;6.472;2023-06-19T09:20:57;11.93;;;9.43;;
52015;SDS011;38032;53.326;6.472;2023-06-19T09:23:23;12.65;;;9.57;;
52015;SDS011;38032;53.326;6.472;2023-06-19T09:25:51;12.77;;;10.07;;
52015;SDS011;38032;53.326;6.472;2023-06-19T09:28:20;14.25;;;10.60;;
52015;SDS011;38032;53.326;6.472;2023-06-19T09:30:56;15.10;;;10.52;;
52015;SDS011;38032;53.326;6.472;2023-06-19T09:35:51;12.98;;;10.48;;
52015;SDS011;38032;53.326;6.472;2023-06-19T09:38:19;14.13;;;10.48;;
52015;SDS011;38032;53.326;6.472;2023-06-19T09:40:48;16.20;;;11.13;;
52015;SDS011;38032;53.326;6.472;2023-06-19T09:43:18;14.20;;;10.93;;
52015;SDS011;38032;53.326;6.472;2023-06-19T09:45:48;13.43;;;10.95;;
52015;SDS011;38032;53.326;6.472;2023-06-19T09:48:18;16.17;;;11.27;;
52015;SDS011;38032;53.326;6.472;2023-06-19T09:50:48;16.55;;;11.73;;
52015;SDS011;38032;53.326;6.472;2023-06-19T09:53:18;14.85;;;11.25;;
52015;SDS011;38032;53.326;6.472;2023-06-19T09:55:46;14.07;;;11.50;;
52015;SDS011;38032;53.326;6.472;2023-06-19T09:58:16;15.25;;;11.80;;
52015;SDS011;38032;53.326;6.472;2023-06-19T10:00:44;16.58;;;12.02;;
52015;SDS011;38032;53.326;6.472;2023-06-19T10:03:12;13.95;;;11.85;;
52015;SDS011;38032;53.326;6.472;2023-06-19T10:05:39;15.70;;;11.48;;
52015;SDS011;38032;53.326;6.472;2023-06-19T10:08:05;13.85;;;12.13;;
52015;SDS011;38032;53.326;6.472;2023-06-19T10:10:33;15.35;;;11.30;;
52015;SDS011;38032;53.326;6.472;2023-06-19T10:13:00;13.88;;;10.98;;
52015;SDS011;38032;53.326;6.472;2023-06-19T10:15:40;14.13;;;11.45;;
52015;SDS011;38032;53.326;6.472;2023-06-19T10:18:12;15.65;;;11.57;;
52015;SDS011;38032;53.326;6.472;2023-06-19T10:20:41;13.25;;;10.73;;
52015;SDS011;38032;53.326;6.472;2023-06-19T10:23:10;14.40;;;10.32;;
52015;SDS011;38032;53.326;6.472;2023-06-19T10:25:39;12.85;;;10.75;;
52015;SDS011;38032;53.326;6.472;2023-06-19T10:28:17;13.07;;;9.98;;
52015;SDS011;38032;53.326;6.472;2023-06-19T10:31:07;12.88;;;10.93;;
52015;SDS011;38032;53.326;6.472;2023-06-19T10:33:35;14.73;;;10.20;;
52015;SDS011;38032;53.326;6.472;2023-06-19T10:36:18;13.55;;;10.68;;
52015;SDS011;38032;53.326;6.472;2023-06-19T10:38:48;14.57;;;10.75;;
52015;SDS011;38032;53.326;6.472;2023-06-19T10:41:18;12.57;;;10.25;;
52015;SDS011;38032;53.326;6.472;2023-06-19T10:43:55;12.32;;;10.20;;
52015;SDS011;38032;53.326;6.472;2023-06-19T10:46:24;12.50;;;10.43;;
52015;SDS011;38032;53.326;6.472;2023-06-19T10:48:55;13.38;;;10.77;;
52015;SDS011;38032;53.326;6.472;2023-06-19T10:51:26;15.48;;;10.65;;
52015;SDS011;38032;53.326;6.472;2023-06-19T10:53:53;13.73;;;10.18;;
52015;SDS011;38032;53.326;6.472;2023-06-19T10:56:21;12.55;;;10.02;;
52015;SDS011;38032;53.326;6.472;2023-06-19T10:58:47;12.73;;;10.18;;
52015;SDS011;38032;53.326;6.472;2023-06-19T11:01:13;12.25;;;9.70;;
52015;SDS011;38032;53.326;6.472;2023-06-19T11:03:39;11.55;;;9.75;;
52015;SDS011;38032;53.326;6.472;2023-06-19T11:06:05;13.48;;;10.00;;
52015;SDS011;38032;53.326;6.472;2023-06-19T11:08:31;14.55;;;10.50;;
52015;SDS011;38032;53.326;6.472;2023-06-19T11:10:57;12.80;;;10.57;;
52015;SDS011;38032;53.326;6.472;2023-06-19T11:13:22;13.93;;;9.65;;
52015;SDS011;38032;53.326;6.472;2023-06-19T11:15:48;13.25;;;10.82;;
52015;SDS011;38032;53.326;6.472;2023-06-19T11:18:15;14.70;;;10.77;;
52015;SDS011;38032;53.326;6.472;2023-06-19T11:20:43;15.85;;;11.25;;
52015;SDS011;38032;53.326;6.472;2023-06-19T11:23:09;13.93;;;10.65;;
52015;SDS011;38032;53.326;6.472;2023-06-19T11:25:35;14.48;;;10.88;;
52015;SDS011;38032;53.326;6.472;2023-06-19T11:28:02;14.85;;;11.25;;
52015;SDS011;38032;53.326;6.472;2023-06-19T11:30:30;15.63;;;10.75;;
52015;SDS011;38032;53.326;6.472;2023-06-19T11:32:57;13.65;;;11.35;;
52015;SDS011;38032;53.326;6.472;2023-06-19T11:35:23;17.05;;;11.45;;
52015;SDS011;38032;53.326;6.472;2023-06-19T11:37:49;14.57;;;11.63;;
52015;SDS011;38032;53.326;6.472;2023-06-19T11:40:16;14.23;;;11.73;;
52015;SDS011;38032;53.326;6.472;2023-06-19T11:42:46;15.38;;;11.38;;
52015;SDS011;38032;53.326;6.472;2023-06-19T11:45:13;13.85;;;10.15;;
52015;SDS011;38032;53.326;6.472;2023-06-19T11:47:39;13.80;;;10.40;;
52015;SDS011;38032;53.326;6.472;2023-06-19T11:50:05;12.02;;;9.75;;
52015;SDS011;38032;53.326;6.472;2023-06-19T11:52:32;13.35;;;10.50;;
52015;SDS011;38032;53.326;6.472;2023-06-19T11:54:58;14.38;;;11.15;;
52015;SDS011;38032;53.326;6.472;2023-06-19T11:57:24;14.07;;;11.32;;
52015;SDS011;38032;53.326;6.472;2023-06-19T11:59:52;13.73;;;10.85;;
52015;SDS011;38032;53.326;6.472;2023-06-19T12:02:17;12.82;;;10.60;;
52015;SDS011;38032;53.326;6.472;2023-06-19T12:04:43;15.57;;;11.27;;
52015;SDS011;38032;53.326;6.472;2023-06-19T12:07:09;13.80;;;11.02;;
52015;SDS011;38032;53.326;6.472;2023-06-19T12:09:36;14.98;;;11.50;;
52015;SDS011;38032;53.326;6.472;2023-06-19T12:12:04;15.65;;;10.32;;
52015;SDS011;38032;53.326;6.472;2023-06-19T12:14:30;14.27;;;10.70;;
52015;SDS011;38032;53.326;6.472;2023-06-19T12:16:56;11.73;;;9.45;;
52015;SDS011;38032;53.326;6.472;2023-06-19T12:19:22;12.32;;;9.95;;
52015;SDS011;38032;53.326;6.472;2023-06-19T12:21:48;12.93;;;10.35;;
52015;SDS011;38032;53.326;6.472;2023-06-19T12:24:14;17.15;;;11.10;;
52015;SDS011;38032;53.326;6.472;2023-06-19T12:26:40;14.45;;;11.52;;
52015;SDS011;38032;53.326;6.472;2023-06-19T12:29:06;13.50;;;10.20;;
52015;SDS011;38032;53.326;6.472;2023-06-19T12:31:33;13.45;;;10.45;;
52015;SDS011;38032;53.326;6.472;2023-06-19T12:33:59;15.30;;;10.68;;
52015;SDS011;38032;53.326;6.472;2023-06-19T12:36:26;12.27;;;9.93;;
52015;SDS011;38032;53.326;6.472;2023-06-19T12:38:52;12.57;;;9.88;;
52015;SDS011;38032;53.326;6.472;2023-06-19T12:41:19;12.38;;;9.80;;
52015;SDS011;38032;53.326;6.472;2023-06-19T12:43:46;13.68;;;10.45;;
52015;SDS011;38032;53.326;6.472;2023-06-19T12:46:12;14.27;;;10.32;;
52015;SDS011;38032;53.326;6.472;2023-06-19T12:48:38;13.10;;;9.52;;
52015;SDS011;38032;53.326;6.472;2023-06-19T12:51:04;11.15;;;9.15;;
52015;SDS011;38032;53.326;6.472;2023-06-19T12:53:30;12.73;;;9.05;;
52015;SDS011;38032;53.326;6.472;2023-06-19T12:55:57;10.77;;;9.48;;
52015;SDS011;38032;53.326;6.472;2023-06-19T12:58:23;9.63;;;8.57;;
52015;SDS011;38032;53.326;6.472;2023-06-19T13:00:49;10.55;;;8.93;;
52015;SDS011;38032;53.326;6.472;2023-06-19T13:03:14;12.32;;;10.23;;
52015;SDS011;38032;53.326;6.472;2023-06-19T13:05:40;12.30;;;8.68;;
52015;SDS011;38032;53.326;6.472;2023-06-19T13:08:06;9.40;;;8.40;;
52015;SDS011;38032;53.326;6.472;2023-06-19T13:10:32;14.07;;;7.80;;
52015;SDS011;38032;53.326;6.472;2023-06-19T13:12:58;11.88;;;8.10;;
52015;SDS011;38032;53.326;6.472;2023-06-19T13:15:24;10.60;;;8.55;;
52015;SDS011;38032;53.326;6.472;2023-06-19T13:17:50;9.00;;;7.85;;
52015;SDS011;38032;53.326;6.472;2023-06-19T13:20:16;10.10;;;8.75;;
52015;SDS011;38032;53.326;6.472;2023-06-19T13:22:42;11.38;;;8.45;;
52015;SDS011;38032;53.326;6.472;2023-06-19T13:25:08;8.75;;;7.47;;
52015;SDS011;38032;53.326;6.472;2023-06-19T13:27:34;9.90;;;7.53;;
52015;SDS011;38032;53.326;6.472;2023-06-19T13:30:01;9.73;;;7.43;;
52015;SDS011;38032;53.326;6.472;2023-06-19T13:32:27;9.40;;;7.00;;
52015;SDS011;38032;53.326;6.472;2023-06-19T13:34:53;9.30;;;7.45;;
52015;SDS011;38032;53.326;6.472;2023-06-19T13:37:20;7.85;;;5.40;;
52015;SDS011;38032;53.326;6.472;2023-06-19T13:39:46;7.90;;;6.60;;
52015;SDS011;38032;53.326;6.472;2023-06-19T13:42:12;8.30;;;6.80;;
52015;SDS011;38032;53.326;6.472;2023-06-19T13:44:38;9.73;;;7.50;;
52015;SDS011;38032;53.326;6.472;2023-06-19T13:47:04;9.45;;;6.93;;
52015;SDS011;38032;53.326;6.472;2023-06-19T13:49:30;10.00;;;7.60;;
52015;SDS011;38032;53.326;6.472;2023-06-19T13:51:56;10.10;;;7.55;;
52015;SDS011;38032;53.326;6.472;2023-06-19T13:54:22;10.88;;;7.50;;
52015;SDS011;38032;53.326;6.472;2023-06-19T13:56:48;8.38;;;7.07;;
52015;SDS011;38032;53.326;6.472;2023-06-19T13:59:16;10.88;;;7.20;;
52015;SDS011;38032;53.326;6.472;2023-06-19T14:01:42;11.18;;;7.15;;
52015;SDS011;38032;53.326;6.472;2023-06-19T14:04:08;9.57;;;7.13;;
52015;SDS011;38032;53.326;6.472;2023-06-19T14:06:34;9.52;;;6.80;;
52015;SDS011;38032;53.326;6.472;2023-06-19T14:09:00;7.63;;;6.30;;
52015;SDS011;38032;53.326;6.472;2023-06-19T14:11:26;7.47;;;6.68;;
52015;SDS011;38032;53.326;6.472;2023-06-19T14:13:54;8.48;;;6.88;;
52015;SDS011;38032;53.326;6.472;2023-06-19T14:16:20;8.63;;;6.70;;
52015;SDS011;38032;53.326;6.472;2023-06-19T14:18:46;8.88;;;6.85;;
52015;SDS011;38032;53.326;6.472;2023-06-19T14:21:12;9.70;;;7.70;;
52015;SDS011;38032;53.326;6.472;2023-06-19T14:23:38;9.38;;;7.45;;
52015;SDS011;38032;53.326;6.472;2023-06-19T14:26:09;8.05;;;6.90;;
52015;SDS011;38032;53.326;6.472;2023-06-19T14:28:36;7.90;;;6.70;;
52015;SDS011;38032;53.326;6.472;2023-06-19T14:31:03;8.82;;;7.53;;
52015;SDS011;38032;53.326;6.472;2023-06-19T14:33:29;8.00;;;6.60;;